Time;durP1;ratioP1;P1;durP2;ratioP2;P2;SDS_P1;SDS_P2;PMS_P1;PMS_P2;Temp;Humidity;BMP_temperature;BMP_pressure;BME280_temperature;BME280_humidity;BME280_pressure;Samples;Min_cycle;Max_cycle;Signal;HPM_P1;HPM_P2
2021/05/29 00:02:16;;;;;;;10.30;7.55;;;9.00;99.90;;;;;;4967252;28;20050;-74
2021/05/29 00:04:44;;;;;;;11.20;7.85;;;8.80;99.90;;;;;;4952073;28;20138;-75
2021/05/29 00:07:12;;;;;;;12.02;8.15;;;8.80;99.90;;;;;;4917776;28;20044;-75
2021/05/29 00:09:40;;;;;;;11.07;8.23;;;8.70;99.90;;;;;;4919888;28;20097;-74
2021/05/29 00:12:09;;;;;;;11.40;7.45;;;8.70;99.90;;;;;;4918702;28;20192;-76
2021/05/29 00:14:39;;;;;;;10.50;7.65;;;8.60;99.90;;;;;;4949967;28;20081;-74
2021/05/29 00:17:08;;;;;;;10.93;8.63;;;8.50;99.90;;;;;;4965904;28;20047;-74
2021/05/29 00:19:35;;;;;;;10.75;7.13;;;8.20;99.90;;;;;;4942462;28;20054;-75
2021/05/29 00:22:09;;;;;;;8.20;6.93;;;8.10;99.90;;;;;;4929207;28;20038;-74
2021/05/29 00:24:36;;;;;;;10.35;7.78;;;8.00;99.90;;;;;;4960129;28;20058;-75
2021/05/29 00:27:04;;;;;;;10.85;6.97;;;7.90;99.90;;;;;;4950872;28;20046;-74
2021/05/29 00:29:32;;;;;;;9.32;7.43;;;8.00;99.90;;;;;;4964159;28;20082;-75
2021/05/29 00:31:59;;;;;;;12.98;7.50;;;8.00;99.90;;;;;;4966593;28;20232;-74
2021/05/29 00:34:26;;;;;;;10.00;7.47;;;7.80;99.90;;;;;;4967157;28;20126;-74
2021/05/29 00:36:53;;;;;;;12.85;7.63;;;7.90;99.90;;;;;;4947797;28;20057;-75
2021/05/29 00:39:21;;;;;;;12.00;7.50;;;7.80;99.90;;;;;;4951068;28;20061;-74
2021/05/29 00:41:48;;;;;;;11.07;7.68;;;7.70;99.90;;;;;;4949931;28;20337;-73
2021/05/29 00:44:15;;;;;;;12.00;8.07;;;7.70;99.90;;;;;;4967979;28;20058;-74
2021/05/29 00:46:43;;;;;;;14.10;7.43;;;7.60;99.90;;;;;;4949511;28;20047;-74
2021/05/29 00:49:11;;;;;;;13.32;8.32;;;7.50;99.90;;;;;;4953997;28;20439;-74
2021/05/29 00:51:39;;;;;;;12.65;8.45;;;7.50;99.90;;;;;;4952244;28;20046;-74
2021/05/29 00:54:06;;;;;;;12.93;7.32;;;7.40;99.90;;;;;;4942812;28;20050;-75
2021/05/29 00:56:34;;;;;;;11.88;8.10;;;7.20;99.90;;;;;;4949898;28;20513;-75
2021/05/29 00:59:02;;;;;;;10.90;7.60;;;7.10;99.90;;;;;;4966212;28;20055;-74
2021/05/29 01:01:29;;;;;;;9.82;7.07;;;7.10;99.90;;;;;;4964122;28;20054;-73
2021/05/29 01:03:56;;;;;;;10.27;7.80;;;7.10;99.90;;;;;;4975338;28;20523;-73
2021/05/29 01:06:24;;;;;;;12.52;8.00;;;7.20;99.90;;;;;;4956222;28;20035;-74
2021/05/29 01:08:51;;;;;;;10.65;8.50;;;7.20;99.90;;;;;;4934809;28;20110;-74
2021/05/29 01:11:19;;;;;;;9.95;7.10;;;7.10;99.90;;;;;;4946823;28;20059;-74
2021/05/29 01:13:47;;;;;;;10.73;7.18;;;7.10;99.90;;;;;;4953133;28;20050;-74
2021/05/29 01:16:41;;;;;;;10.00;6.30;;;7.00;99.90;;;;;;4934655;28;20035;-74
2021/05/29 01:19:05;;;;;;;11.15;6.40;;;6.60;99.90;;;;;;4953984;28;20042;-74
2021/05/29 01:21:33;;;;;;;14.60;6.50;;;6.40;99.90;;;;;;4952632;28;20065;-74
2021/05/29 01:24:00;;;;;;;14.70;6.60;;;6.40;99.90;;;;;;4937849;28;20046;-74
2021/05/29 01:26:28;;;;;;;12.02;7.63;;;6.30;99.90;;;;;;4948294;28;20034;-75
2021/05/29 01:28:59;;;;;;;15.70;7.70;;;6.30;99.90;;;;;;4950632;28;20045;-75
2021/05/29 01:31:29;;;;;;;12.15;7.75;;;6.10;99.90;;;;;;4949573;28;20051;-75
2021/05/29 01:33:58;;;;;;;10.60;7.03;;;6.30;99.90;;;;;;4949439;28;20117;-75
2021/05/29 01:36:29;;;;;;;11.38;8.05;;;6.30;99.90;;;;;;4970584;28;20062;-74
2021/05/29 01:38:57;;;;;;;12.20;8.20;;;6.30;99.90;;;;;;4967185;28;20055;-73
2021/05/29 01:41:25;;;;;;;11.95;7.30;;;6.10;99.90;;;;;;4936543;28;20042;-74
2021/05/29 01:43:53;;;;;;;11.55;7.47;;;6.10;99.90;;;;;;4953486;28;20416;-76
2021/05/29 01:46:21;;;;;;;12.20;7.05;;;6.10;99.90;;;;;;4950238;28;20526;-74
2021/05/29 01:48:50;;;;;;;9.23;7.18;;;6.10;99.90;;;;;;4953015;28;20137;-75
2021/05/29 01:51:20;;;;;;;14.20;8.85;;;6.30;99.90;;;;;;4925929;28;20040;-75
2021/05/29 01:53:52;;;;;;;16.52;8.50;;;6.20;99.90;;;;;;4924404;28;20383;-75
2021/05/29 01:56:21;;;;;;;11.05;7.90;;;6.30;99.90;;;;;;4955107;28;20101;-74
2021/05/29 01:58:48;;;;;;;14.25;8.52;;;6.20;99.90;;;;;;4955007;28;20546;-75
2021/05/29 02:01:16;;;;;;;26.90;8.40;;;6.20;99.90;;;;;;4949606;28;20050;-73
2021/05/29 02:03:45;;;;;;;11.60;7.28;;;6.20;99.90;;;;;;4949275;28;20076;-74
2021/05/29 02:06:14;;;;;;;8.43;6.25;;;6.00;99.90;;;;;;4947338;28;20039;-75
2021/05/29 02:08:42;;;;;;;10.18;7.00;;;5.90;99.90;;;;;;4930341;28;20503;-75
2021/05/29 02:11:10;;;;;;;13.70;6.65;;;5.70;99.90;;;;;;4970629;28;20046;-74
2021/05/29 02:13:40;;;;;;;11.02;6.63;;;5.70;99.90;;;;;;4966603;28;20035;-74
2021/05/29 02:16:10;;;;;;;8.77;5.85;;;5.60;99.90;;;;;;4923823;29;20654;-74
2021/05/29 02:18:38;;;;;;;8.50;6.63;;;5.70;99.90;;;;;;4947977;28;20051;-74
2021/05/29 02:21:08;;;;;;;11.35;7.45;;;5.80;99.90;;;;;;4973337;28;20097;-74
2021/05/29 02:23:40;;;;;;;11.85;7.43;;;5.80;99.90;;;;;;4923984;28;20055;-73
2021/05/29 02:26:16;;;;;;;10.77;6.90;;;5.80;99.90;;;;;;4952316;28;20360;-73
2021/05/29 02:28:49;;;;;;;10.38;7.20;;;5.80;99.90;;;;;;4932231;28;20463;-74
2021/05/29 02:31:20;;;;;;;10.30;6.93;;;5.60;99.90;;;;;;4965038;28;20392;-74
2021/05/29 02:33:50;;;;;;;11.80;7.28;;;5.40;99.90;;;;;;4948689;28;20058;-74
2021/05/29 02:36:18;;;;;;;14.07;7.32;;;5.40;99.90;;;;;;4915779;28;20456;-75
2021/05/29 02:38:45;;;;;;;10.02;7.03;;;5.30;99.90;;;;;;4946387;28;20061;-74
2021/05/29 02:41:14;;;;;;;12.88;7.13;;;5.40;99.90;;;;;;4933582;28;20067;-74
2021/05/29 02:43:42;;;;;;;8.98;6.90;;;5.40;99.90;;;;;;4938595;28;20198;-74
2021/05/29 02:46:10;;;;;;;10.55;7.25;;;5.30;99.90;;;;;;4966884;28;20459;-75
2021/05/29 02:48:38;;;;;;;10.75;8.27;;;5.20;99.90;;;;;;4948428;28;20166;-74
2021/05/29 02:51:06;;;;;;;13.45;8.00;;;5.10;99.90;;;;;;4950408;28;20046;-75
2021/05/29 02:53:34;;;;;;;9.63;6.97;;;5.10;99.90;;;;;;4941272;28;21237;-73
2021/05/29 02:56:04;;;;;;;10.25;7.13;;;5.10;99.90;;;;;;4939186;28;20415;-74
2021/05/29 02:58:32;;;;;;;16.65;8.50;;;5.00;99.90;;;;;;4929196;28;20510;-74
2021/05/29 03:01:00;;;;;;;13.85;9.32;;;5.00;99.90;;;;;;4950144;28;20054;-74
2021/05/29 03:03:28;;;;;;;12.07;8.05;;;5.00;99.90;;;;;;4948357;28;20053;-74
2021/05/29 03:05:56;;;;;;;12.20;8.57;;;5.00;99.90;;;;;;4963228;28;20053;-75
2021/05/29 03:08:27;;;;;;;13.38;8.02;;;5.20;99.90;;;;;;4933151;28;20129;-74
2021/05/29 03:10:56;;;;;;;11.48;8.23;;;5.20;99.90;;;;;;4945845;28;20182;-73
2021/05/29 03:13:23;;;;;;;10.00;7.47;;;5.20;99.90;;;;;;4947163;28;20971;-73
2021/05/29 03:15:51;;;;;;;12.82;7.00;;;4.90;99.90;;;;;;4947984;28;20130;-74
2021/05/29 03:18:25;;;;;;;12.75;6.63;;;5.00;99.90;;;;;;4948601;28;20442;-74
2021/05/29 03:20:53;;;;;;;15.40;7.80;;;5.00;99.90;;;;;;4930305;28;20122;-74
2021/05/29 03:23:25;;;;;;;12.07;7.38;;;5.00;99.90;;;;;;4946050;28;20047;-73
2021/05/29 03:25:53;;;;;;;15.27;8.32;;;4.90;99.90;;;;;;4948098;28;20138;-74
2021/05/29 03:28:24;;;;;;;10.73;7.47;;;4.90;99.90;;;;;;4925987;28;20035;-74
2021/05/29 03:30:55;;;;;;;10.18;7.40;;;4.90;99.90;;;;;;4953262;28;20121;-74
2021/05/29 03:33:25;;;;;;;11.18;7.43;;;4.90;99.90;;;;;;4949755;28;20042;-75
2021/05/29 03:35:58;;;;;;;16.27;8.30;;;5.00;99.90;;;;;;4946829;28;20047;-73
2021/05/29 03:38:25;;;;;;;32.63;10.02;;;5.00;99.90;;;;;;4947663;28;20120;-73
2021/05/29 03:40:56;;;;;;;41.53;12.77;;;5.00;99.90;;;;;;4937364;28;20045;-73
2021/05/29 03:43:23;;;;;;;30.58;11.65;;;5.00;99.90;;;;;;4945024;28;20331;-74
2021/05/29 03:45:51;;;;;;;19.58;9.55;;;5.20;99.90;;;;;;4930001;28;20050;-75
2021/05/29 03:48:19;;;;;;;15.43;8.73;;;5.40;99.90;;;;;;4947961;28;20134;-74
2021/05/29 03:50:50;;;;;;;28.90;9.90;;;5.30;99.90;;;;;;4952659;28;20056;-74
2021/05/29 03:53:18;;;;;;;24.45;10.15;;;5.40;99.90;;;;;;4954173;28;20043;-74
2021/05/29 03:55:50;;;;;;;17.25;9.35;;;5.40;99.90;;;;;;4946209;28;20038;-73
2021/05/29 03:58:18;;;;;;;21.15;8.25;;;5.70;99.90;;;;;;4947637;28;20114;-74
2021/05/29 04:00:50;;;;;;;72.25;13.73;;;5.50;99.90;;;;;;4939892;28;20065;-74
2021/05/29 04:03:19;;;;;;;73.70;14.93;;;5.60;99.90;;;;;;4918673;28;20066;-74
2021/05/29 04:05:47;;;;;;;48.17;14.85;;;5.70;99.90;;;;;;4946979;28;20591;-74
2021/05/29 04:08:16;;;;;;;53.22;16.85;;;5.70;99.90;;;;;;4915365;28;20170;-74
2021/05/29 04:10:45;;;;;;;48.72;17.10;;;5.80;99.90;;;;;;4947211;28;20779;-74
2021/05/29 04:13:15;;;;;;;68.68;16.17;;;5.80;99.90;;;;;;4947797;28;20534;-73
2021/05/29 04:15:43;;;;;;;118.40;18.52;;;5.90;99.90;;;;;;4911353;28;20315;-73
2021/05/29 04:18:12;;;;;;;83.57;16.85;;;5.90;99.90;;;;;;4915971;28;20047;-74
2021/05/29 04:20:42;;;;;;;61.80;15.10;;;6.00;99.90;;;;;;4954344;28;20042;-74
2021/05/29 04:23:12;;;;;;;42.45;13.38;;;6.00;99.90;;;;;;4945885;28;20062;-74
2021/05/29 04:25:42;;;;;;;91.35;18.75;;;6.00;99.90;;;;;;4929957;28;20101;-74
2021/05/29 04:28:10;;;;;;;36.80;14.57;;;6.00;99.90;;;;;;4950021;28;20042;-73
2021/05/29 04:30:41;;;;;;;51.70;17.05;;;6.10;99.90;;;;;;4947657;28;20053;-74
2021/05/29 04:33:09;;;;;;;39.97;14.00;;;6.20;99.90;;;;;;4955301;28;20107;-73
2021/05/29 04:35:36;;;;;;;33.13;15.27;;;6.30;99.90;;;;;;4955603;28;20047;-72
2021/05/29 04:38:05;;;;;;;30.42;13.88;;;6.30;99.90;;;;;;4935257;28;20038;-75
2021/05/29 04:40:32;;;;;;;40.70;13.90;;;6.50;99.90;;;;;;4960402;28;20050;-73
2021/05/29 04:43:01;;;;;;;28.13;12.38;;;6.50;99.90;;;;;;4938342;28;20081;-76
2021/05/29 04:45:32;;;;;;;40.92;14.70;;;6.60;99.90;;;;;;4933098;28;20053;-73
2021/05/29 04:47:59;;;;;;;45.13;17.52;;;6.70;99.90;;;;;;4921316;28;20072;-74
2021/05/29 04:50:27;;;;;;;55.25;20.40;;;6.80;99.90;;;;;;4938455;28;20101;-74
2021/05/29 04:52:58;;;;;;;59.92;21.85;;;6.90;99.90;;;;;;4954683;28;20097;-74
2021/05/29 04:55:27;;;;;;;49.60;19.00;;;7.20;99.90;;;;;;4933361;28;20089;-74
2021/05/29 04:57:55;;;;;;;55.15;19.30;;;7.30;99.90;;;;;;4917897;28;20053;-74
2021/05/29 05:00:25;;;;;;;116.18;36.50;;;7.40;99.90;;;;;;4933328;28;20038;-74
2021/05/29 05:02:52;;;;;;;119.40;38.40;;;7.70;99.90;;;;;;4952900;28;20076;-75
2021/05/29 05:05:20;;;;;;;123.70;36.15;;;7.90;99.90;;;;;;4938029;28;20100;-74
2021/05/29 05:07:49;;;;;;;111.47;37.72;;;8.10;99.90;;;;;;4969608;28;20123;-74
2021/05/29 05:10:17;;;;;;;126.18;37.83;;;8.20;99.90;;;;;;4938653;28;20039;-74
2021/05/29 05:12:46;;;;;;;109.63;38.05;;;8.20;99.90;;;;;;4953677;28;20042;-75
2021/05/29 05:15:15;;;;;;;101.28;37.28;;;8.40;99.90;;;;;;4965395;28;20275;-74
2021/05/29 05:17:43;;;;;;;103.10;39.33;;;8.40;99.90;;;;;;4956742;28;20057;-74
2021/05/29 05:20:12;;;;;;;95.97;36.40;;;8.40;99.90;;;;;;4935827;28;20503;-74
2021/05/29 05:22:40;;;;;;;87.80;34.67;;;8.60;99.90;;;;;;4918639;28;20047;-74
2021/05/29 05:25:14;;;;;;;83.60;32.30;;;8.60;99.90;;;;;;4956903;28;20169;-74
2021/05/29 05:27:43;;;;;;;84.40;35.28;;;8.50;99.90;;;;;;4919917;28;20047;-74
2021/05/29 05:30:15;;;;;;;84.22;32.60;;;8.50;99.90;;;;;;4964612;28;20255;-74
2021/05/29 05:32:44;;;;;;;77.97;33.22;;;8.70;99.90;;;;;;4931030;28;20050;-73
2021/05/29 05:35:15;;;;;;;72.30;32.70;;;8.60;99.90;;;;;;4952604;28;20042;-74
2021/05/29 05:37:44;;;;;;;75.60;33.45;;;8.60;99.90;;;;;;4942864;28;20054;-75
2021/05/29 05:40:13;;;;;;;77.90;33.28;;;8.60;99.90;;;;;;4949429;28;20043;-76
2021/05/29 05:42:41;;;;;;;85.95;36.22;;;8.80;99.90;;;;;;4934503;28;20043;-75
2021/05/29 05:45:09;;;;;;;85.22;35.13;;;8.90;99.90;;;;;;4932028;28;20069;-75
2021/05/29 05:47:40;;;;;;;70.35;33.72;;;9.00;99.90;;;;;;4959633;28;20054;-75
2021/05/29 05:50:11;;;;;;;83.38;37.28;;;9.10;99.90;;;;;;4928176;28;20069;-73
2021/05/29 05:52:40;;;;;;;73.22;34.10;;;9.20;99.90;;;;;;4896477;28;20043;-73
2021/05/29 05:55:12;;;;;;;71.95;35.40;;;9.20;99.90;;;;;;4943867;28;20053;-73
2021/05/29 05:57:40;;;;;;;73.65;35.67;;;9.30;99.90;;;;;;4931459;28;20047;-74
2021/05/29 06:00:11;;;;;;;84.22;38.03;;;9.40;99.90;;;;;;4965172;28;20049;-74
2021/05/29 06:02:43;;;;;;;65.35;33.95;;;9.50;99.90;;;;;;4931822;28;20047;-74
2021/05/29 06:05:16;;;;;;;59.80;30.45;;;9.70;99.90;;;;;;4933389;28;20051;-73
2021/05/29 06:07:44;;;;;;;59.88;29.42;;;9.70;99.90;;;;;;4963909;28;20404;-75
2021/05/29 06:10:23;;;;;;;59.45;28.67;;;9.70;99.90;;;;;;4972261;28;20081;-74
2021/05/29 06:12:53;;;;;;;55.88;29.65;;;9.50;99.90;;;;;;4917450;28;20137;-74
2021/05/29 06:20:46;;;;;;;54.97;29.33;;;9.60;99.90;;;;;;4969371;28;20049;-74
2021/05/29 06:23:17;;;;;;;53.58;27.17;;;9.70;99.90;;;;;;4950122;28;20093;-74
2021/05/29 06:25:45;;;;;;;41.97;25.67;;;9.70;99.90;;;;;;4943383;28;20605;-74
2021/05/29 06:28:14;;;;;;;49.58;26.77;;;9.70;99.90;;;;;;4940554;28;20043;-74
2021/05/29 06:30:54;;;;;;;45.25;25.95;;;9.60;99.90;;;;;;4933019;28;20113;-74
2021/05/29 06:33:24;;;;;;;55.58;27.90;;;9.90;99.90;;;;;;4967849;28;20065;-74
2021/05/29 06:35:55;;;;;;;47.38;26.33;;;10.10;99.90;;;;;;4935081;28;20048;-74
2021/05/29 06:38:27;;;;;;;47.80;25.73;;;10.30;99.90;;;;;;4930951;28;20218;-74
2021/05/29 06:40:56;;;;;;;43.00;25.92;;;10.40;99.90;;;;;;4947145;28;20058;-73
2021/05/29 06:43:24;;;;;;;40.13;24.33;;;10.30;99.90;;;;;;4932903;28;20206;-73
2021/05/29 06:45:52;;;;;;;46.00;26.35;;;10.20;99.90;;;;;;4917807;28;20046;-73
2021/05/29 06:48:21;;;;;;;42.47;24.73;;;10.10;99.90;;;;;;4948917;28;20044;-74
2021/05/29 06:50:52;;;;;;;44.25;25.92;;;10.10;99.90;;;;;;4944439;28;20655;-73
2021/05/29 06:53:32;;;;;;;49.28;26.95;;;10.20;99.90;;;;;;4949006;28;20039;-75
2021/05/29 06:58:55;;;;;;;42.95;26.88;;;10.50;99.90;;;;;;4930326;28;20046;-74
2021/05/29 07:01:26;;;;;;;37.90;23.77;;;10.50;99.90;;;;;;4914854;28;20728;-73
2021/05/29 07:03:57;;;;;;;36.10;24.45;;;10.70;99.90;;;;;;4925525;28;20045;-75
2021/05/29 07:06:35;;;;;;;43.03;25.75;;;10.80;99.90;;;;;;4921947;28;20101;-75
2021/05/29 07:09:06;;;;;;;46.38;26.77;;;11.00;99.90;;;;;;4937562;28;20043;-74
2021/05/29 07:11:40;;;;;;;45.63;28.08;;;11.20;99.90;;;;;;4931881;28;20066;-74
2021/05/29 07:14:08;;;;;;;35.53;22.52;;;11.10;99.90;;;;;;4947380;28;20098;-75
2021/05/29 07:16:53;;;;;;;35.22;23.55;;;11.10;99.90;;;;;;4930430;28;20050;-73
2021/05/29 07:19:25;;;;;;;35.88;23.35;;;11.00;99.90;;;;;;4947471;28;20104;-74
2021/05/29 07:22:05;;;;;;;35.20;23.15;;;10.80;99.90;;;;;;4941390;28;20047;-73
2021/05/29 07:24:36;;;;;;;43.03;25.27;;;10.70;99.90;;;;;;4931428;28;20146;-73
2021/05/29 07:27:06;;;;;;;30.98;21.75;;;10.60;99.90;;;;;;4916684;28;20042;-73
2021/05/29 07:29:34;;;;;;;31.98;23.25;;;10.70;99.90;;;;;;4956841;28;20053;-72
2021/05/29 07:32:03;;;;;;;31.95;21.95;;;10.90;99.90;;;;;;4926833;28;20035;-72
2021/05/29 07:34:32;;;;;;;35.22;23.45;;;10.80;99.90;;;;;;4958699;28;20047;-72
2021/05/29 07:37:01;;;;;;;27.90;20.20;;;10.80;99.90;;;;;;4946414;28;20167;-72
2021/05/29 07:39:29;;;;;;;34.00;21.33;;;10.80;99.90;;;;;;4919983;28;20226;-72
2021/05/29 07:42:00;;;;;;;46.33;34.80;;;10.90;99.90;;;;;;4941211;28;20047;-71
2021/05/29 07:44:29;;;;;;;33.38;26.98;;;11.00;99.90;;;;;;4947311;28;20105;-71
2021/05/29 07:47:00;;;;;;;35.75;30.02;;;10.90;99.90;;;;;;4928779;28;20046;-72
2021/05/29 07:49:30;;;;;;;34.17;22.73;;;10.80;99.90;;;;;;4921102;28;20043;-71
2021/05/29 07:52:12;;;;;;;36.22;24.42;;;10.90;99.90;;;;;;4929680;28;20125;-71
2021/05/29 07:54:41;;;;;;;32.72;21.13;;;11.00;99.90;;;;;;4927946;29;20305;-72
2021/05/29 07:57:31;;;;;;;29.77;20.75;;;11.30;99.90;;;;;;4932606;28;20042;-72
2021/05/29 08:00:11;;;;;;;37.30;22.38;;;11.50;99.90;;;;;;4940856;28;20527;-73
2021/05/29 08:02:40;;;;;;;32.50;22.55;;;11.60;99.90;;;;;;4947277;28;20043;-72
2021/05/29 08:05:21;;;;;;;39.53;25.77;;;11.70;99.90;;;;;;4949275;28;20050;-71
2021/05/29 08:07:52;;;;;;;36.65;25.35;;;11.70;99.90;;;;;;4951402;28;20053;-73
2021/05/29 08:10:22;;;;;;;38.45;25.00;;;11.70;99.90;;;;;;4932805;28;20101;-70
2021/05/29 08:12:52;;;;;;;36.92;23.92;;;11.60;99.90;;;;;;4959104;28;20061;-72
2021/05/29 08:15:21;;;;;;;35.55;24.55;;;11.60;99.90;;;;;;4945562;28;20066;-72
2021/05/29 08:17:51;;;;;;;35.75;22.15;;;11.70;99.90;;;;;;4932770;28;20665;-73
2021/05/29 08:20:29;;;;;;;38.13;23.85;;;11.80;99.90;;;;;;4968112;28;20047;-72
2021/05/29 08:22:57;;;;;;;32.92;23.65;;;11.80;99.90;;;;;;4929268;28;20046;-71
2021/05/29 08:25:26;;;;;;;35.10;23.75;;;11.70;99.90;;;;;;4944440;28;20443;-73
2021/05/29 08:27:55;;;;;;;36.38;24.52;;;11.70;99.90;;;;;;4926532;28;20058;-72
2021/05/29 08:30:24;;;;;;;34.88;24.27;;;11.80;99.90;;;;;;4944931;28;20039;-71
2021/05/29 08:32:53;;;;;;;36.70;25.38;;;11.80;99.90;;;;;;4950086;28;20512;-71
2021/05/29 08:35:22;;;;;;;36.35;23.58;;;11.80;99.90;;;;;;4932392;28;20172;-69
2021/05/29 08:37:51;;;;;;;33.45;23.92;;;11.80;99.90;;;;;;4935106;28;20317;-71
2021/05/29 08:40:21;;;;;;;32.45;23.05;;;11.90;99.90;;;;;;4941918;28;20503;-71
2021/05/29 08:42:50;;;;;;;30.80;22.83;;;12.00;99.90;;;;;;4914796;29;20063;-71
2021/05/29 08:45:24;;;;;;;31.85;22.17;;;12.00;99.90;;;;;;4916814;28;20043;-72
2021/05/29 08:48:00;;;;;;;34.20;22.80;;;12.10;99.90;;;;;;4955579;28;20043;-70
2021/05/29 08:50:28;;;;;;;32.15;22.00;;;12.20;99.90;;;;;;4948596;28;20230;-72
2021/05/29 08:52:57;;;;;;;27.95;21.00;;;12.50;99.90;;;;;;4967810;28;20258;-71
2021/05/29 08:55:26;;;;;;;31.60;22.25;;;12.60;99.90;;;;;;4946765;28;20105;-70
2021/05/29 08:57:55;;;;;;;36.33;22.48;;;12.70;99.90;;;;;;4949470;28;20543;-72
2021/05/29 09:00:26;;;;;;;32.88;20.88;;;12.80;99.90;;;;;;4943271;28;20054;-70
2021/05/29 09:03:07;;;;;;;31.63;22.63;;;12.90;99.90;;;;;;4958433;28;20443;-73
2021/05/29 09:05:42;;;;;;;27.58;21.40;;;13.00;99.90;;;;;;4939656;28;20133;-72
2021/05/29 09:08:12;;;;;;;26.40;20.73;;;13.00;99.90;;;;;;4916793;29;20048;-71
2021/05/29 09:10:46;;;;;;;31.00;21.10;;;13.00;99.90;;;;;;4933034;28;20078;-71
2021/05/29 09:13:17;;;;;;;24.65;19.23;;;13.10;99.90;;;;;;4949569;28;20042;-71
2021/05/29 09:15:54;;;;;;;22.55;18.63;;;13.10;99.90;;;;;;4915778;28;20093;-71
2021/05/29 09:18:48;;;;;;;23.00;18.08;;;13.10;99.90;;;;;;4934062;28;20694;-72
2021/05/29 09:21:23;;;;;;;21.60;17.80;;;13.10;99.90;;;;;;4950995;28;20873;-72
2021/05/29 09:24:04;;;;;;;22.23;18.45;;;13.00;99.90;;;;;;4965385;28;20099;-72
2021/05/29 09:26:53;;;;;;;23.90;18.17;;;12.90;99.90;;;;;;4937884;28;20542;-71
2021/05/29 09:29:30;;;;;;;21.85;17.48;;;12.90;99.90;;;;;;4941903;28;20030;-71
2021/05/29 09:32:11;;;;;;;23.33;15.18;;;12.90;99.90;;;;;;4929700;28;20109;-69
2021/05/29 09:34:56;;;;;;;22.50;17.10;;;13.00;99.90;;;;;;4962890;28;20068;-72
2021/05/29 09:37:27;;;;;;;20.57;17.77;;;13.10;99.90;;;;;;4949477;28;20120;-71
2021/05/29 09:40:10;;;;;;;18.35;16.27;;;13.20;99.90;;;;;;4949361;28;20050;-71
2021/05/29 09:42:41;;;;;;;19.85;16.95;;;13.10;99.90;;;;;;4930961;28;20051;-71
2021/05/29 09:45:18;;;;;;;23.13;17.67;;;13.30;99.90;;;;;;4931454;28;20070;-70
2021/05/29 09:48:09;;;;;;;24.38;18.83;;;13.30;99.90;;;;;;4933932;28;20050;-69
2021/05/29 09:51:03;;;;;;;22.35;18.45;;;13.40;99.90;;;;;;4941227;28;20126;-72
2021/05/29 09:53:42;;;;;;;21.35;18.02;;;13.40;99.90;;;;;;4966592;28;20074;-70
2021/05/29 09:56:34;;;;;;;19.30;17.15;;;13.40;99.90;;;;;;4948205;28;20050;-72
2021/05/29 09:59:09;;;;;;;20.65;16.77;;;13.50;99.90;;;;;;4918830;28;20539;-71
2021/05/29 10:01:53;;;;;;;20.67;18.47;;;13.50;99.90;;;;;;4934134;28;20523;-71
2021/05/29 10:04:30;;;;;;;25.13;19.13;;;13.60;99.90;;;;;;4968374;28;20129;-70
2021/05/29 10:07:01;;;;;;;22.02;17.20;;;13.70;99.90;;;;;;4937448;28;20141;-71
2021/05/29 10:09:30;;;;;;;21.02;18.83;;;13.90;99.90;;;;;;4933052;28;20531;-70
2021/05/29 10:11:59;;;;;;;23.63;19.20;;;13.90;99.90;;;;;;4917155;28;20053;-71
2021/05/29 10:14:30;;;;;;;23.88;19.45;;;14.10;99.90;;;;;;4933196;28;20039;-70
2021/05/29 10:17:02;;;;;;;21.02;18.80;;;14.20;99.90;;;;;;4932216;28;20120;-71
2021/05/29 10:19:32;;;;;;;21.63;18.38;;;14.30;99.90;;;;;;4932658;28;20043;-70
2021/05/29 10:22:15;;;;;;;26.42;20.38;;;14.40;99.90;;;;;;4953688;28;20298;-70
2021/05/29 10:24:46;;;;;;;26.88;21.90;;;14.50;99.90;;;;;;4932744;28;20046;-70
2021/05/29 10:27:24;;;;;;;21.77;19.50;;;14.30;99.90;;;;;;4961967;28;20113;-73
2021/05/29 10:29:59;;;;;;;23.90;21.38;;;14.10;99.90;;;;;;4938985;28;20035;-70
2021/05/29 10:32:28;;;;;;;23.88;21.38;;;14.00;99.90;;;;;;4932004;28;20050;-70
2021/05/29 10:35:08;;;;;;;24.02;19.88;;;13.90;99.90;;;;;;4915922;28;20434;-70
2021/05/29 10:37:44;;;;;;;22.73;19.60;;;13.90;99.90;;;;;;4950639;28;20054;-71
2021/05/29 10:40:21;;;;;;;24.25;20.17;;;14.20;99.90;;;;;;4925851;28;20053;-71
2021/05/29 10:43:18;;;;;;;21.70;19.63;;;14.20;99.90;;;;;;4952667;28;20438;-71
2021/05/29 10:45:50;;;;;;;22.20;20.05;;;14.30;99.90;;;;;;4930794;28;20082;-70
2021/05/29 10:48:27;;;;;;;22.50;20.25;;;14.60;99.90;;;;;;4916987;28;20069;-71
2021/05/29 10:51:13;;;;;;;20.23;17.35;;;14.50;99.90;;;;;;4935208;28;20043;-71
2021/05/29 10:53:49;;;;;;;23.75;20.42;;;14.40;99.90;;;;;;4948194;28;20538;-72
2021/05/29 10:56:20;;;;;;;22.98;19.00;;;14.50;99.90;;;;;;4914430;28;20049;-70
2021/05/29 10:59:13;;;;;;;20.55;18.63;;;14.40;99.90;;;;;;4926788;28;20051;-70
2021/05/29 11:01:50;;;;;;;21.33;19.20;;;14.50;99.90;;;;;;4917943;28;20506;-71
2021/05/29 11:04:19;;;;;;;22.98;19.17;;;14.50;99.90;;;;;;4935932;28;20051;-70
2021/05/29 11:07:19;;;;;;;22.00;19.80;;;14.70;99.90;;;;;;4933649;28;20051;-71
2021/05/29 11:09:55;;;;;;;21.83;19.73;;;14.90;99.90;;;;;;4927513;28;20053;-71
2021/05/29 11:12:49;;;;;;;21.45;19.35;;;14.80;99.90;;;;;;4952109;28;20035;-70
2021/05/29 11:15:20;;;;;;;21.27;19.08;;;15.20;99.90;;;;;;4951402;28;20046;-69
2021/05/29 11:18:07;;;;;;;21.73;19.75;;;15.20;99.90;;;;;;4935349;28;20051;-70
2021/05/29 11:21:05;;;;;;;21.17;19.38;;;15.40;99.90;;;;;;4968387;28;20058;-70
2021/05/29 11:23:35;;;;;;;20.85;19.05;;;15.80;99.90;;;;;;4938531;28;20043;-70
2021/05/29 11:26:02;;;;;;;20.15;18.42;;;16.00;99.90;;;;;;4978632;28;20459;-72
2021/05/29 11:28:32;;;;;;;20.77;18.77;;;15.90;99.90;;;;;;4927651;28;20120;-72
2021/05/29 11:31:02;;;;;;;19.58;17.88;;;15.80;99.90;;;;;;4917875;28;20045;-70
2021/05/29 11:33:31;;;;;;;21.52;19.33;;;15.70;99.90;;;;;;4941764;28;20047;-70
2021/05/29 11:35:59;;;;;;;22.45;20.35;;;15.70;99.90;;;;;;4955035;28;20132;-71
2021/05/29 11:38:32;;;;;;;21.50;19.65;;;15.60;99.90;;;;;;4926103;28;20132;-71
2021/05/29 11:41:13;;;;;;;20.17;18.10;;;15.60;99.90;;;;;;4934349;28;20538;-72
2021/05/29 11:43:43;;;;;;;18.88;17.27;;;15.40;99.90;;;;;;4935783;28;20228;-71
2021/05/29 11:46:15;;;;;;;20.40;18.45;;;15.20;99.90;;;;;;4934683;28;20102;-70
2021/05/29 11:48:47;;;;;;;21.10;19.30;;;15.10;99.90;;;;;;4947723;28;20047;-70
2021/05/29 11:51:19;;;;;;;21.45;19.02;;;15.20;99.90;;;;;;4958956;28;20042;-72
2021/05/29 11:53:51;;;;;;;19.67;17.77;;;15.30;99.90;;;;;;4985219;28;20054;-71
2021/05/29 11:56:36;;;;;;;21.60;19.45;;;15.50;99.90;;;;;;4965431;28;20047;-71
2021/05/29 11:59:06;;;;;;;;;;;15.50;99.90;;;;;;4944358;28;20039;-72
2021/05/29 12:01:42;;;;;;;22.02;19.83;;;15.50;99.90;;;;;;4969100;28;19929;-72
2021/05/29 12:04:11;;;;;;;21.85;19.95;;;15.70;99.90;;;;;;4968141;28;20065;-72
2021/05/29 12:06:47;;;;;;;22.05;19.90;;;15.90;99.90;;;;;;4968339;28;20058;-72
2021/05/29 12:09:41;;;;;;;22.30;20.30;;;16.10;99.90;;;;;;4968760;28;20055;-72
2021/05/29 12:12:13;;;;;;;22.88;20.23;;;15.80;99.90;;;;;;4969065;28;20058;-72
2021/05/29 12:14:55;;;;;;;28.30;21.42;;;15.80;99.90;;;;;;4965973;28;20138;-72
2021/05/29 12:17:33;;;;;;;22.73;20.13;;;15.60;99.90;;;;;;4934800;28;20047;-74
2021/05/29 12:20:00;;;;;;;23.38;21.05;;;15.80;99.90;;;;;;4943537;28;20051;-72
2021/05/29 12:22:31;;;;;;;21.77;19.77;;;16.40;99.90;;;;;;4966601;28;20574;-72
2021/05/29 12:25:04;;;;;;;21.55;19.38;;;16.80;99.90;;;;;;4964223;28;20062;-72
2021/05/29 12:27:39;;;;;;;22.55;20.45;;;16.90;99.90;;;;;;4936096;28;20220;-72
2021/05/29 12:30:10;;;;;;;23.75;20.80;;;16.90;99.90;;;;;;4950839;28;20043;-72
2021/05/29 12:32:39;;;;;;;27.48;23.05;;;16.80;99.90;;;;;;4966202;28;20134;-73
2021/05/29 12:35:30;;;;;;;21.35;19.25;;;16.70;99.90;;;;;;4965803;28;20051;-72
2021/05/29 12:38:20;;;;;;;22.02;19.67;;;16.70;99.90;;;;;;4948807;28;20066;-72
2021/05/29 12:41:11;;;;;;;21.70;19.65;;;16.30;99.90;;;;;;4964485;28;20043;-72
2021/05/29 12:43:41;;;;;;;22.23;20.08;;;16.20;99.90;;;;;;4956627;28;20186;-72
2021/05/29 12:46:24;;;;;;;21.67;19.67;;;16.20;99.90;;;;;;4968319;28;20101;-73
2021/05/29 12:49:09;;;;;;;22.73;20.52;;;16.10;99.90;;;;;;4953008;28;20047;-74
2021/05/29 12:51:58;;;;;;;23.30;21.00;;;16.00;99.90;;;;;;4945443;28;20509;-72
2021/05/29 12:54:46;;;;;;;22.05;19.80;;;16.20;99.90;;;;;;4971897;28;20050;-73
2021/05/29 12:57:12;;;;;;;21.55;19.63;;;16.60;99.90;;;;;;4969256;28;20051;-72
2021/05/29 12:59:39;;;;;;;20.98;19.13;;;16.90;99.90;;;;;;4970561;28;20064;-73
2021/05/29 13:07:35;;;;;;;21.75;19.85;;;17.30;99.90;;;;;;4964930;28;20110;-73
2021/05/29 13:10:28;;;;;;;23.15;21.08;;;17.40;99.90;;;;;;4970186;28;20510;-72
2021/05/29 13:13:05;;;;;;;22.92;20.60;;;17.10;99.90;;;;;;4950432;28;20419;-73
2021/05/29 13:15:32;;;;;;;22.45;20.05;;;16.80;99.90;;;;;;4966830;28;20570;-73